sensor_id;sensor_type;location;lat;lon;timestamp;P1;durP1;ratioP1;P2;durP2;ratioP2
18082;SDS011;9168;51.194;6.840;2022-08-01T00:00:16;7.30;;;4.55;;
18082;SDS011;9168;51.194;6.840;2022-08-01T00:02:44;12.95;;;4.60;;
18082;SDS011;9168;51.194;6.840;2022-08-01T00:05:11;11.05;;;4.20;;
18082;SDS011;9168;51.194;6.840;2022-08-01T00:07:38;5.93;;;4.00;;
18082;SDS011;9168;51.194;6.840;2022-08-01T00:10:09;7.32;;;4.13;;
18082;SDS011;9168;51.194;6.840;2022-08-01T00:12:37;12.50;;;4.80;;
18082;SDS011;9168;51.194;6.840;2022-08-01T00:15:06;10.40;;;4.30;;
18082;SDS011;9168;51.194;6.840;2022-08-01T00:17:34;11.32;;;4.75;;
18082;SDS011;9168;51.194;6.840;2022-08-01T00:20:03;14.13;;;4.28;;
18082;SDS011;9168;51.194;6.840;2022-08-01T00:22:34;11.50;;;4.38;;
18082;SDS011;9168;51.194;6.840;2022-08-01T00:25:01;14.27;;;4.40;;
18082;SDS011;9168;51.194;6.840;2022-08-01T00:27:29;11.73;;;4.15;;
18082;SDS011;9168;51.194;6.840;2022-08-01T00:29:56;8.05;;;4.43;;
18082;SDS011;9168;51.194;6.840;2022-08-01T00:32:23;8.35;;;4.38;;
18082;SDS011;9168;51.194;6.840;2022-08-01T00:34:50;10.43;;;4.78;;
18082;SDS011;9168;51.194;6.840;2022-08-01T00:37:18;14.43;;;4.40;;
18082;SDS011;9168;51.194;6.840;2022-08-01T00:39:45;16.75;;;4.95;;
18082;SDS011;9168;51.194;6.840;2022-08-01T00:42:12;14.02;;;4.65;;
18082;SDS011;9168;51.194;6.840;2022-08-01T00:44:39;15.48;;;6.05;;
18082;SDS011;9168;51.194;6.840;2022-08-01T00:47:07;15.07;;;5.47;;
18082;SDS011;9168;51.194;6.840;2022-08-01T00:49:34;11.05;;;4.75;;
18082;SDS011;9168;51.194;6.840;2022-08-01T00:52:01;14.45;;;5.65;;
18082;SDS011;9168;51.194;6.840;2022-08-01T00:54:30;10.20;;;5.10;;
18082;SDS011;9168;51.194;6.840;2022-08-01T00:56:57;10.25;;;5.30;;
18082;SDS011;9168;51.194;6.840;2022-08-01T00:59:24;8.95;;;5.30;;
18082;SDS011;9168;51.194;6.840;2022-08-01T01:01:52;8.48;;;4.60;;
18082;SDS011;9168;51.194;6.840;2022-08-01T01:04:19;10.98;;;4.82;;
18082;SDS011;9168;51.194;6.840;2022-08-01T01:06:47;10.57;;;4.90;;
18082;SDS011;9168;51.194;6.840;2022-08-01T01:09:34;11.57;;;5.07;;
18082;SDS011;9168;51.194;6.840;2022-08-01T01:12:12;8.70;;;4.80;;
18082;SDS011;9168;51.194;6.840;2022-08-01T01:14:44;11.98;;;5.35;;
18082;SDS011;9168;51.194;6.840;2022-08-01T01:17:18;11.82;;;5.25;;
18082;SDS011;9168;51.194;6.840;2022-08-01T01:19:51;11.05;;;4.93;;
18082;SDS011;9168;51.194;6.840;2022-08-01T01:22:24;7.45;;;4.40;;
18082;SDS011;9168;51.194;6.840;2022-08-01T01:25:04;14.75;;;5.20;;
18082;SDS011;9168;51.194;6.840;2022-08-01T01:27:42;9.30;;;4.80;;
18082;SDS011;9168;51.194;6.840;2022-08-01T01:30:17;14.18;;;5.22;;
18082;SDS011;9168;51.194;6.840;2022-08-01T01:32:46;14.25;;;5.88;;
18082;SDS011;9168;51.194;6.840;2022-08-01T01:35:17;7.50;;;4.90;;
18082;SDS011;9168;51.194;6.840;2022-08-01T01:37:49;10.55;;;5.22;;
18082;SDS011;9168;51.194;6.840;2022-08-01T01:40:33;8.00;;;4.65;;
18082;SDS011;9168;51.194;6.840;2022-08-01T01:43:01;12.77;;;4.78;;
18082;SDS011;9168;51.194;6.840;2022-08-01T01:45:29;11.95;;;4.72;;
18082;SDS011;9168;51.194;6.840;2022-08-01T01:47:57;12.40;;;4.90;;
18082;SDS011;9168;51.194;6.840;2022-08-01T01:50:25;12.82;;;4.72;;
18082;SDS011;9168;51.194;6.840;2022-08-01T01:52:53;13.02;;;5.15;;
18082;SDS011;9168;51.194;6.840;2022-08-01T01:55:21;8.43;;;5.03;;
18082;SDS011;9168;51.194;6.840;2022-08-01T01:57:51;11.80;;;4.72;;
18082;SDS011;9168;51.194;6.840;2022-08-01T02:00:20;11.52;;;5.05;;
18082;SDS011;9168;51.194;6.840;2022-08-01T02:02:49;10.18;;;4.68;;
18082;SDS011;9168;51.194;6.840;2022-08-01T02:05:18;8.07;;;5.15;;
18082;SDS011;9168;51.194;6.840;2022-08-01T02:07:47;14.80;;;5.05;;
18082;SDS011;9168;51.194;6.840;2022-08-01T02:10:17;12.63;;;4.75;;
18082;SDS011;9168;51.194;6.840;2022-08-01T02:12:45;8.50;;;4.70;;
18082;SDS011;9168;51.194;6.840;2022-08-01T02:15:15;11.32;;;5.30;;
18082;SDS011;9168;51.194;6.840;2022-08-01T02:17:44;16.48;;;5.82;;
18082;SDS011;9168;51.194;6.840;2022-08-01T02:20:16;10.23;;;4.97;;
18082;SDS011;9168;51.194;6.840;2022-08-01T02:22:44;13.80;;;4.72;;
18082;SDS011;9168;51.194;6.840;2022-08-01T02:25:15;11.13;;;5.63;;
18082;SDS011;9168;51.194;6.840;2022-08-01T02:27:50;13.93;;;5.70;;
18082;SDS011;9168;51.194;6.840;2022-08-01T02:30:22;12.43;;;5.10;;
18082;SDS011;9168;51.194;6.840;2022-08-01T02:32:53;14.50;;;5.32;;
18082;SDS011;9168;51.194;6.840;2022-08-01T02:35:27;13.55;;;5.40;;
18082;SDS011;9168;51.194;6.840;2022-08-01T02:37:57;13.40;;;5.82;;
18082;SDS011;9168;51.194;6.840;2022-08-01T02:40:26;14.75;;;5.63;;
18082;SDS011;9168;51.194;6.840;2022-08-01T02:42:55;13.60;;;6.00;;
18082;SDS011;9168;51.194;6.840;2022-08-01T02:45:25;9.10;;;4.85;;
18082;SDS011;9168;51.194;6.840;2022-08-01T02:47:54;14.23;;;5.40;;
18082;SDS011;9168;51.194;6.840;2022-08-01T02:50:26;9.70;;;5.25;;
18082;SDS011;9168;51.194;6.840;2022-08-01T02:52:55;13.20;;;5.97;;
18082;SDS011;9168;51.194;6.840;2022-08-01T02:55:24;14.05;;;5.95;;
18082;SDS011;9168;51.194;6.840;2022-08-01T02:57:52;12.90;;;5.60;;
18082;SDS011;9168;51.194;6.840;2022-08-01T03:00:21;15.63;;;6.30;;
18082;SDS011;9168;51.194;6.840;2022-08-01T03:02:49;14.57;;;6.60;;
18082;SDS011;9168;51.194;6.840;2022-08-01T03:05:19;12.55;;;5.43;;
18082;SDS011;9168;51.194;6.840;2022-08-01T03:07:48;14.93;;;6.30;;
18082;SDS011;9168;51.194;6.840;2022-08-01T03:10:17;8.95;;;5.20;;
18082;SDS011;9168;51.194;6.840;2022-08-01T03:12:44;12.27;;;5.93;;
18082;SDS011;9168;51.194;6.840;2022-08-01T03:15:12;12.30;;;6.10;;
18082;SDS011;9168;51.194;6.840;2022-08-01T03:17:41;14.73;;;6.05;;
18082;SDS011;9168;51.194;6.840;2022-08-01T03:20:11;11.48;;;5.60;;
18082;SDS011;9168;51.194;6.840;2022-08-01T03:22:40;15.48;;;5.65;;
18082;SDS011;9168;51.194;6.840;2022-08-01T03:25:10;12.50;;;5.75;;
18082;SDS011;9168;51.194;6.840;2022-08-01T03:27:39;13.30;;;5.95;;
18082;SDS011;9168;51.194;6.840;2022-08-01T03:30:09;11.10;;;5.78;;
18082;SDS011;9168;51.194;6.840;2022-08-01T03:32:37;11.68;;;5.85;;
18082;SDS011;9168;51.194;6.840;2022-08-01T03:35:05;11.90;;;7.05;;
18082;SDS011;9168;51.194;6.840;2022-08-01T03:37:34;17.55;;;6.20;;
18082;SDS011;9168;51.194;6.840;2022-08-01T03:40:06;16.48;;;7.05;;
18082;SDS011;9168;51.194;6.840;2022-08-01T03:42:39;13.23;;;6.53;;
18082;SDS011;9168;51.194;6.840;2022-08-01T03:45:11;14.98;;;8.25;;
18082;SDS011;9168;51.194;6.840;2022-08-01T03:47:45;17.58;;;8.50;;
18082;SDS011;9168;51.194;6.840;2022-08-01T03:50:15;27.10;;;9.65;;
18082;SDS011;9168;51.194;6.840;2022-08-01T03:52:43;19.75;;;9.65;;
18082;SDS011;9168;51.194;6.840;2022-08-01T03:55:12;26.17;;;11.68;;
18082;SDS011;9168;51.194;6.840;2022-08-01T03:57:43;21.35;;;11.18;;
18082;SDS011;9168;51.194;6.840;2022-08-01T04:00:12;24.80;;;11.68;;
18082;SDS011;9168;51.194;6.840;2022-08-01T04:02:43;24.92;;;10.95;;
18082;SDS011;9168;51.194;6.840;2022-08-01T04:05:11;14.20;;;8.38;;
18082;SDS011;9168;51.194;6.840;2022-08-01T04:07:38;17.73;;;9.43;;
18082;SDS011;9168;51.194;6.840;2022-08-01T04:10:08;16.83;;;8.70;;
18082;SDS011;9168;51.194;6.840;2022-08-01T04:12:35;19.65;;;10.40;;
18082;SDS011;9168;51.194;6.840;2022-08-01T04:15:03;22.35;;;10.77;;
18082;SDS011;9168;51.194;6.840;2022-08-01T04:17:31;27.67;;;10.70;;
18082;SDS011;9168;51.194;6.840;2022-08-01T04:19:58;17.55;;;9.30;;
18082;SDS011;9168;51.194;6.840;2022-08-01T04:22:25;20.20;;;11.98;;
18082;SDS011;9168;51.194;6.840;2022-08-01T04:24:53;21.05;;;11.95;;
18082;SDS011;9168;51.194;6.840;2022-08-01T04:27:22;21.63;;;13.68;;
18082;SDS011;9168;51.194;6.840;2022-08-01T04:29:53;21.02;;;13.00;;
18082;SDS011;9168;51.194;6.840;2022-08-01T04:32:25;24.92;;;12.63;;
18082;SDS011;9168;51.194;6.840;2022-08-01T04:34:54;24.15;;;13.52;;
18082;SDS011;9168;51.194;6.840;2022-08-01T04:37:23;21.83;;;12.82;;
18082;SDS011;9168;51.194;6.840;2022-08-01T04:39:52;36.58;;;15.00;;
18082;SDS011;9168;51.194;6.840;2022-08-01T04:42:21;27.85;;;14.98;;
18082;SDS011;9168;51.194;6.840;2022-08-01T04:44:48;27.02;;;16.15;;
18082;SDS011;9168;51.194;6.840;2022-08-01T04:47:15;29.15;;;17.13;;
18082;SDS011;9168;51.194;6.840;2022-08-01T04:49:44;29.00;;;16.92;;
18082;SDS011;9168;51.194;6.840;2022-08-01T04:52:12;28.38;;;18.55;;
18082;SDS011;9168;51.194;6.840;2022-08-01T04:54:39;30.90;;;18.50;;
18082;SDS011;9168;51.194;6.840;2022-08-01T04:57:06;31.02;;;17.27;;
18082;SDS011;9168;51.194;6.840;2022-08-01T04:59:34;26.17;;;16.75;;
18082;SDS011;9168;51.194;6.840;2022-08-01T05:02:06;32.03;;;17.75;;
18082;SDS011;9168;51.194;6.840;2022-08-01T05:04:34;34.17;;;18.85;;
18082;SDS011;9168;51.194;6.840;2022-08-01T05:07:02;30.88;;;17.75;;
18082;SDS011;9168;51.194;6.840;2022-08-01T05:09:30;29.00;;;16.45;;
18082;SDS011;9168;51.194;6.840;2022-08-01T05:11:57;31.48;;;17.02;;
18082;SDS011;9168;51.194;6.840;2022-08-01T05:14:27;34.15;;;17.52;;
18082;SDS011;9168;51.194;6.840;2022-08-01T05:16:56;30.10;;;16.20;;
18082;SDS011;9168;51.194;6.840;2022-08-01T05:19:24;27.70;;;16.88;;
18082;SDS011;9168;51.194;6.840;2022-08-01T05:21:51;27.42;;;16.13;;
18082;SDS011;9168;51.194;6.840;2022-08-01T05:24:19;27.63;;;15.32;;
18082;SDS011;9168;51.194;6.840;2022-08-01T05:26:47;26.00;;;16.35;;
18082;SDS011;9168;51.194;6.840;2022-08-01T05:29:14;31.65;;;17.50;;
18082;SDS011;9168;51.194;6.840;2022-08-01T05:31:41;26.00;;;16.35;;
18082;SDS011;9168;51.194;6.840;2022-08-01T05:34:08;34.13;;;17.58;;
18082;SDS011;9168;51.194;6.840;2022-08-01T05:36:35;28.38;;;15.75;;
18082;SDS011;9168;51.194;6.840;2022-08-01T05:39:02;27.42;;;16.00;;
18082;SDS011;9168;51.194;6.840;2022-08-01T05:41:31;26.33;;;15.57;;
18082;SDS011;9168;51.194;6.840;2022-08-01T05:43:58;23.80;;;15.55;;
18082;SDS011;9168;51.194;6.840;2022-08-01T05:46:24;24.92;;;14.57;;
18082;SDS011;9168;51.194;6.840;2022-08-01T05:48:51;26.15;;;16.05;;
18082;SDS011;9168;51.194;6.840;2022-08-01T05:51:18;29.15;;;15.65;;
18082;SDS011;9168;51.194;6.840;2022-08-01T05:53:45;21.67;;;13.90;;
18082;SDS011;9168;51.194;6.840;2022-08-01T05:56:12;25.02;;;13.98;;
18082;SDS011;9168;51.194;6.840;2022-08-01T05:58:40;24.27;;;13.10;;
18082;SDS011;9168;51.194;6.840;2022-08-01T06:01:07;29.25;;;15.57;;
18082;SDS011;9168;51.194;6.840;2022-08-01T06:03:34;20.27;;;14.10;;
18082;SDS011;9168;51.194;6.840;2022-08-01T06:06:01;25.23;;;15.23;;
18082;SDS011;9168;51.194;6.840;2022-08-01T06:08:28;24.20;;;14.57;;
18082;SDS011;9168;51.194;6.840;2022-08-01T06:10:55;18.38;;;13.23;;
18082;SDS011;9168;51.194;6.840;2022-08-01T06:13:22;28.05;;;14.88;;
18082;SDS011;9168;51.194;6.840;2022-08-01T06:15:50;25.27;;;15.00;;
18082;SDS011;9168;51.194;6.840;2022-08-01T06:18:17;20.92;;;13.38;;
18082;SDS011;9168;51.194;6.840;2022-08-01T06:20:44;26.02;;;15.32;;
18082;SDS011;9168;51.194;6.840;2022-08-01T06:23:11;30.35;;;15.55;;
18082;SDS011;9168;51.194;6.840;2022-08-01T06:25:40;24.50;;;14.63;;
18082;SDS011;9168;51.194;6.840;2022-08-01T06:28:08;25.52;;;14.70;;
18082;SDS011;9168;51.194;6.840;2022-08-01T06:30:35;21.35;;;13.27;;
18082;SDS011;9168;51.194;6.840;2022-08-01T06:33:03;27.00;;;15.05;;
18082;SDS011;9168;51.194;6.840;2022-08-01T06:35:30;21.40;;;13.45;;
18082;SDS011;9168;51.194;6.840;2022-08-01T06:37:57;21.80;;;14.15;;
18082;SDS011;9168;51.194;6.840;2022-08-01T06:40:24;22.50;;;14.65;;
18082;SDS011;9168;51.194;6.840;2022-08-01T06:42:51;24.20;;;14.20;;
18082;SDS011;9168;51.194;6.840;2022-08-01T06:45:18;28.98;;;15.80;;
18082;SDS011;9168;51.194;6.840;2022-08-01T06:47:47;20.20;;;13.27;;
18082;SDS011;9168;51.194;6.840;2022-08-01T06:50:16;20.08;;;13.32;;
18082;SDS011;9168;51.194;6.840;2022-08-01T06:52:43;21.85;;;13.27;;
18082;SDS011;9168;51.194;6.840;2022-08-01T06:55:10;18.52;;;12.98;;
18082;SDS011;9168;51.194;6.840;2022-08-01T06:57:44;20.25;;;12.65;;
18082;SDS011;9168;51.194;6.840;2022-08-01T07:00:13;24.92;;;15.43;;
18082;SDS011;9168;51.194;6.840;2022-08-01T07:02:41;25.45;;;15.00;;
18082;SDS011;9168;51.194;6.840;2022-08-01T07:05:08;21.98;;;13.15;;
18082;SDS011;9168;51.194;6.840;2022-08-01T07:07:37;18.63;;;12.38;;
18082;SDS011;9168;51.194;6.840;2022-08-01T07:10:04;19.10;;;11.48;;
18082;SDS011;9168;51.194;6.840;2022-08-01T07:12:36;16.33;;;9.23;;
18082;SDS011;9168;51.194;6.840;2022-08-01T07:15:04;12.45;;;9.07;;
18082;SDS011;9168;51.194;6.840;2022-08-01T07:17:31;17.30;;;8.82;;
18082;SDS011;9168;51.194;6.840;2022-08-01T07:19:58;16.77;;;7.90;;
18082;SDS011;9168;51.194;6.840;2022-08-01T07:22:25;12.32;;;8.32;;
18082;SDS011;9168;51.194;6.840;2022-08-01T07:24:53;16.33;;;9.20;;
18082;SDS011;9168;51.194;6.840;2022-08-01T07:27:20;15.20;;;7.97;;
18082;SDS011;9168;51.194;6.840;2022-08-01T07:29:47;14.95;;;7.88;;
18082;SDS011;9168;51.194;6.840;2022-08-01T07:32:14;12.27;;;7.43;;
18082;SDS011;9168;51.194;6.840;2022-08-01T07:34:40;12.52;;;6.93;;
18082;SDS011;9168;51.194;6.840;2022-08-01T07:37:07;10.73;;;6.15;;
18082;SDS011;9168;51.194;6.840;2022-08-01T07:39:34;14.38;;;6.72;;
18082;SDS011;9168;51.194;6.840;2022-08-01T07:42:02;8.70;;;5.72;;
18082;SDS011;9168;51.194;6.840;2022-08-01T07:44:29;14.52;;;7.38;;
18082;SDS011;9168;51.194;6.840;2022-08-01T07:46:56;10.73;;;5.60;;
18082;SDS011;9168;51.194;6.840;2022-08-01T07:49:23;14.75;;;5.85;;
18082;SDS011;9168;51.194;6.840;2022-08-01T07:51:50;9.77;;;6.05;;
18082;SDS011;9168;51.194;6.840;2022-08-01T07:54:16;9.45;;;5.90;;
18082;SDS011;9168;51.194;6.840;2022-08-01T07:56:43;9.60;;;5.50;;
18082;SDS011;9168;51.194;6.840;2022-08-01T07:59:11;9.48;;;5.45;;
18082;SDS011;9168;51.194;6.840;2022-08-01T08:01:38;8.77;;;5.63;;
18082;SDS011;9168;51.194;6.840;2022-08-01T08:04:06;8.30;;;5.85;;
18082;SDS011;9168;51.194;6.840;2022-08-01T08:06:33;10.27;;;6.00;;
18082;SDS011;9168;51.194;6.840;2022-08-01T08:09:00;12.43;;;5.85;;
18082;SDS011;9168;51.194;6.840;2022-08-01T08:11:27;11.68;;;6.72;;
18082;SDS011;9168;51.194;6.840;2022-08-01T08:13:53;10.50;;;6.70;;
18082;SDS011;9168;51.194;6.840;2022-08-01T08:16:22;14.15;;;8.05;;
18082;SDS011;9168;51.194;6.840;2022-08-01T08:18:52;14.38;;;8.25;;
18082;SDS011;9168;51.194;6.840;2022-08-01T08:21:24;12.55;;;7.28;;
18082;SDS011;9168;51.194;6.840;2022-08-01T08:23:51;13.15;;;7.68;;
18082;SDS011;9168;51.194;6.840;2022-08-01T08:26:41;10.27;;;5.95;;
18082;SDS011;9168;51.194;6.840;2022-08-01T08:29:08;14.23;;;6.80;;
18082;SDS011;9168;51.194;6.840;2022-08-01T08:31:37;10.95;;;5.97;;
18082;SDS011;9168;51.194;6.840;2022-08-01T08:34:05;8.60;;;5.22;;
18082;SDS011;9168;51.194;6.840;2022-08-01T08:36:33;10.43;;;5.03;;
18082;SDS011;9168;51.194;6.840;2022-08-01T08:39:00;9.77;;;4.70;;
18082;SDS011;9168;51.194;6.840;2022-08-01T08:41:29;8.52;;;4.80;;
18082;SDS011;9168;51.194;6.840;2022-08-01T08:43:56;11.38;;;5.88;;
18082;SDS011;9168;51.194;6.840;2022-08-01T08:46:24;11.75;;;5.55;;
18082;SDS011;9168;51.194;6.840;2022-08-01T08:48:54;8.82;;;5.53;;
18082;SDS011;9168;51.194;6.840;2022-08-01T08:51:23;9.07;;;5.38;;
18082;SDS011;9168;51.194;6.840;2022-08-01T08:53:52;9.18;;;4.65;;
18082;SDS011;9168;51.194;6.840;2022-08-01T08:56:21;8.93;;;4.35;;
18082;SDS011;9168;51.194;6.840;2022-08-01T08:58:50;9.98;;;5.03;;
18082;SDS011;9168;51.194;6.840;2022-08-01T09:01:18;10.18;;;4.47;;
18082;SDS011;9168;51.194;6.840;2022-08-01T09:03:45;8.48;;;5.15;;
18082;SDS011;9168;51.194;6.840;2022-08-01T09:06:13;5.90;;;3.70;;
18082;SDS011;9168;51.194;6.840;2022-08-01T09:08:40;9.57;;;4.00;;
18082;SDS011;9168;51.194;6.840;2022-08-01T09:11:07;6.85;;;3.58;;
18082;SDS011;9168;51.194;6.840;2022-08-01T09:13:34;8.40;;;4.13;;
18082;SDS011;9168;51.194;6.840;2022-08-01T09:16:01;6.85;;;3.90;;
18082;SDS011;9168;51.194;6.840;2022-08-01T09:18:32;7.47;;;3.90;;
18082;SDS011;9168;51.194;6.840;2022-08-01T09:21:07;9.05;;;3.72;;
18082;SDS011;9168;51.194;6.840;2022-08-01T09:23:40;6.25;;;3.60;;
18082;SDS011;9168;51.194;6.840;2022-08-01T09:26:13;7.55;;;3.65;;
18082;SDS011;9168;51.194;6.840;2022-08-01T09:28:41;7.78;;;3.72;;
18082;SDS011;9168;51.194;6.840;2022-08-01T09:31:09;5.90;;;3.90;;
18082;SDS011;9168;51.194;6.840;2022-08-01T09:33:51;4.93;;;3.60;;
18082;SDS011;9168;51.194;6.840;2022-08-01T09:36:20;7.20;;;4.00;;
18082;SDS011;9168;51.194;6.840;2022-08-01T09:38:49;6.05;;;3.72;;
18082;SDS011;9168;51.194;6.840;2022-08-01T09:41:16;7.93;;;3.78;;
18082;SDS011;9168;51.194;6.840;2022-08-01T09:43:54;4.85;;;2.85;;
18082;SDS011;9168;51.194;6.840;2022-08-01T09:46:20;6.13;;;3.28;;
18082;SDS011;9168;51.194;6.840;2022-08-01T09:48:57;6.03;;;3.10;;
18082;SDS011;9168;51.194;6.840;2022-08-01T09:51:31;7.32;;;3.60;;
18082;SDS011;9168;51.194;6.840;2022-08-01T09:53:59;7.18;;;3.05;;
18082;SDS011;9168;51.194;6.840;2022-08-01T09:56:34;6.82;;;3.38;;
18082;SDS011;9168;51.194;6.840;2022-08-01T09:59:02;4.30;;;3.03;;
18082;SDS011;9168;51.194;6.840;2022-08-01T10:01:41;5.50;;;3.40;;
18082;SDS011;9168;51.194;6.840;2022-08-01T10:04:09;5.88;;;3.78;;
18082;SDS011;9168;51.194;6.840;2022-08-01T10:06:39;4.78;;;3.20;;
18082;SDS011;9168;51.194;6.840;2022-08-01T10:09:09;5.40;;;3.13;;
18082;SDS011;9168;51.194;6.840;2022-08-01T10:11:37;8.38;;;3.08;;
18082;SDS011;9168;51.194;6.840;2022-08-01T10:14:05;5.80;;;3.70;;
18082;SDS011;9168;51.194;6.840;2022-08-01T10:16:34;6.38;;;3.17;;
18082;SDS011;9168;51.194;6.840;2022-08-01T10:19:02;4.65;;;3.50;;
18082;SDS011;9168;51.194;6.840;2022-08-01T10:21:31;5.07;;;3.10;;
18082;SDS011;9168;51.194;6.840;2022-08-01T10:24:01;6.00;;;3.70;;
18082;SDS011;9168;51.194;6.840;2022-08-01T10:26:29;5.60;;;3.13;;
18082;SDS011;9168;51.194;6.840;2022-08-01T10:28:59;7.85;;;3.20;;
18082;SDS011;9168;51.194;6.840;2022-08-01T10:31:27;5.07;;;2.92;;
18082;SDS011;9168;51.194;6.840;2022-08-01T10:33:57;5.75;;;3.30;;
18082;SDS011;9168;51.194;6.840;2022-08-01T10:36:25;6.70;;;2.85;;
18082;SDS011;9168;51.194;6.840;2022-08-01T10:38:53;4.50;;;2.67;;
18082;SDS011;9168;51.194;6.840;2022-08-01T10:41:22;3.85;;;2.92;;
18082;SDS011;9168;51.194;6.840;2022-08-01T10:43:51;5.03;;;2.60;;
18082;SDS011;9168;51.194;6.840;2022-08-01T10:46:18;5.47;;;2.70;;
18082;SDS011;9168;51.194;6.840;2022-08-01T10:48:47;5.75;;;2.88;;
18082;SDS011;9168;51.194;6.840;2022-08-01T10:51:21;3.03;;;2.55;;
18082;SDS011;9168;51.194;6.840;2022-08-01T10:53:50;3.53;;;2.60;;
18082;SDS011;9168;51.194;6.840;2022-08-01T10:56:18;2.88;;;2.20;;
18082;SDS011;9168;51.194;6.840;2022-08-01T10:58:48;3.78;;;2.50;;
18082;SDS011;9168;51.194;6.840;2022-08-01T11:01:20;2.67;;;2.42;;
18082;SDS011;9168;51.194;6.840;2022-08-01T11:06:46;4.32;;;2.60;;
18082;SDS011;9168;51.194;6.840;2022-08-01T11:09:29;3.33;;;1.95;;
18082;SDS011;9168;51.194;6.840;2022-08-01T11:11:58;6.90;;;2.42;;
18082;SDS011;9168;51.194;6.840;2022-08-01T11:14:31;2.47;;;1.95;;
18082;SDS011;9168;51.194;6.840;2022-08-01T11:20:08;4.75;;;2.10;;
18082;SDS011;9168;51.194;6.840;2022-08-01T11:26:10;4.10;;;2.08;;
18082;SDS011;9168;51.194;6.840;2022-08-01T11:28:39;2.28;;;1.83;;
18082;SDS011;9168;51.194;6.840;2022-08-01T11:31:29;5.75;;;2.15;;
18082;SDS011;9168;51.194;6.840;2022-08-01T11:33:57;3.90;;;2.10;;
18082;SDS011;9168;51.194;6.840;2022-08-01T11:36:25;4.35;;;2.10;;
18082;SDS011;9168;51.194;6.840;2022-08-01T11:41:45;2.97;;;2.03;;
18082;SDS011;9168;51.194;6.840;2022-08-01T11:44:17;5.70;;;2.42;;
18082;SDS011;9168;51.194;6.840;2022-08-01T11:46:52;5.95;;;2.20;;
18082;SDS011;9168;51.194;6.840;2022-08-01T11:49:32;3.83;;;2.00;;
18082;SDS011;9168;51.194;6.840;2022-08-01T11:52:10;1.95;;;1.73;;
18082;SDS011;9168;51.194;6.840;2022-08-01T11:54:39;1.88;;;1.67;;
18082;SDS011;9168;51.194;6.840;2022-08-01T11:57:07;2.33;;;1.90;;
18082;SDS011;9168;51.194;6.840;2022-08-01T11:59:37;2.13;;;1.83;;
18082;SDS011;9168;51.194;6.840;2022-08-01T12:02:15;4.38;;;2.20;;
18082;SDS011;9168;51.194;6.840;2022-08-01T12:04:44;3.22;;;2.00;;
18082;SDS011;9168;51.194;6.840;2022-08-01T12:07:12;3.40;;;2.10;;
18082;SDS011;9168;51.194;6.840;2022-08-01T12:09:39;5.32;;;1.90;;
18082;SDS011;9168;51.194;6.840;2022-08-01T12:12:06;4.78;;;2.30;;
18082;SDS011;9168;51.194;6.840;2022-08-01T12:14:34;4.47;;;2.17;;
18082;SDS011;9168;51.194;6.840;2022-08-01T12:17:01;2.58;;;2.05;;
18082;SDS011;9168;51.194;6.840;2022-08-01T12:19:30;2.47;;;2.28;;
18082;SDS011;9168;51.194;6.840;2022-08-01T12:22:06;3.10;;;2.30;;
18082;SDS011;9168;51.194;6.840;2022-08-01T12:24:35;4.18;;;2.20;;
18082;SDS011;9168;51.194;6.840;2022-08-01T12:27:02;2.88;;;2.30;;
18082;SDS011;9168;51.194;6.840;2022-08-01T12:29:33;2.88;;;2.35;;
18082;SDS011;9168;51.194;6.840;2022-08-01T12:32:00;2.72;;;2.20;;
18082;SDS011;9168;51.194;6.840;2022-08-01T12:34:28;3.65;;;2.38;;
18082;SDS011;9168;51.194;6.840;2022-08-01T12:36:59;3.35;;;2.20;;
18082;SDS011;9168;51.194;6.840;2022-08-01T12:39:33;2.28;;;2.10;;
18082;SDS011;9168;51.194;6.840;2022-08-01T12:42:00;2.85;;;2.15;;
18082;SDS011;9168;51.194;6.840;2022-08-01T12:44:31;4.15;;;2.28;;
18082;SDS011;9168;51.194;6.840;2022-08-01T12:46:58;6.85;;;2.20;;
18082;SDS011;9168;51.194;6.840;2022-08-01T12:49:26;2.92;;;2.30;;
18082;SDS011;9168;51.194;6.840;2022-08-01T12:51:55;3.85;;;2.35;;
18082;SDS011;9168;51.194;6.840;2022-08-01T12:54:22;3.25;;;2.20;;
18082;SDS011;9168;51.194;6.840;2022-08-01T12:56:50;3.40;;;2.05;;
18082;SDS011;9168;51.194;6.840;2022-08-01T12:59:19;2.67;;;2.00;;
18082;SDS011;9168;51.194;6.840;2022-08-01T13:01:47;3.40;;;2.03;;
18082;SDS011;9168;51.194;6.840;2022-08-01T13:04:14;1.95;;;1.77;;
18082;SDS011;9168;51.194;6.840;2022-08-01T13:06:41;3.88;;;2.00;;
18082;SDS011;9168;51.194;6.840;2022-08-01T13:09:09;4.35;;;1.92;;
18082;SDS011;9168;51.194;6.840;2022-08-01T13:11:38;5.13;;;2.50;;
18082;SDS011;9168;51.194;6.840;2022-08-01T13:14:05;4.78;;;2.30;;
18082;SDS011;9168;51.194;6.840;2022-08-01T13:16:33;5.15;;;2.63;;
18082;SDS011;9168;51.194;6.840;2022-08-01T13:19:12;3.45;;;2.60;;
18082;SDS011;9168;51.194;6.840;2022-08-01T13:21:39;3.13;;;2.40;;
18082;SDS011;9168;51.194;6.840;2022-08-01T13:24:25;3.55;;;2.03;;
18082;SDS011;9168;51.194;6.840;2022-08-01T13:26:54;4.32;;;2.58;;
18082;SDS011;9168;51.194;6.840;2022-08-01T13:29:31;3.70;;;2.30;;
18082;SDS011;9168;51.194;6.840;2022-08-01T13:31:59;3.00;;;2.30;;
18082;SDS011;9168;51.194;6.840;2022-08-01T13:34:37;3.38;;;2.17;;
18082;SDS011;9168;51.194;6.840;2022-08-01T13:37:04;2.83;;;2.50;;
18082;SDS011;9168;51.194;6.840;2022-08-01T13:39:32;2.78;;;2.35;;
18082;SDS011;9168;51.194;6.840;2022-08-01T13:42:11;3.45;;;2.13;;
18082;SDS011;9168;51.194;6.840;2022-08-01T13:44:39;2.30;;;2.10;;
18082;SDS011;9168;51.194;6.840;2022-08-01T13:47:06;2.15;;;2.00;;
18082;SDS011;9168;51.194;6.840;2022-08-01T13:49:33;2.80;;;2.17;;
18082;SDS011;9168;51.194;6.840;2022-08-01T13:52:00;4.72;;;2.13;;
18082;SDS011;9168;51.194;6.840;2022-08-01T13:54:31;4.22;;;1.90;;
18082;SDS011;9168;51.194;6.840;2022-08-01T13:56:59;4.82;;;2.15;;
18082;SDS011;9168;51.194;6.840;2022-08-01T13:59:26;3.55;;;2.22;;
18082;SDS011;9168;51.194;6.840;2022-08-01T14:01:53;5.15;;;1.90;;
18082;SDS011;9168;51.194;6.840;2022-08-01T14:04:20;6.35;;;1.90;;
18082;SDS011;9168;51.194;6.840;2022-08-01T14:06:47;3.33;;;1.75;;
18082;SDS011;9168;51.194;6.840;2022-08-01T14:09:14;4.05;;;2.13;;
18082;SDS011;9168;51.194;6.840;2022-08-01T14:11:45;6.80;;;2.47;;
18082;SDS011;9168;51.194;6.840;2022-08-01T14:14:12;3.92;;;1.98;;
18082;SDS011;9168;51.194;6.840;2022-08-01T14:16:39;4.80;;;2.10;;
18082;SDS011;9168;51.194;6.840;2022-08-01T14:19:09;3.95;;;2.33;;
18082;SDS011;9168;51.194;6.840;2022-08-01T14:21:36;4.65;;;2.10;;
18082;SDS011;9168;51.194;6.840;2022-08-01T14:24:03;6.07;;;2.30;;
18082;SDS011;9168;51.194;6.840;2022-08-01T14:26:31;6.00;;;2.33;;
18082;SDS011;9168;51.194;6.840;2022-08-01T14:28:59;3.85;;;2.42;;
18082;SDS011;9168;51.194;6.840;2022-08-01T14:31:26;3.25;;;2.20;;
18082;SDS011;9168;51.194;6.840;2022-08-01T14:33:54;4.60;;;2.20;;
18082;SDS011;9168;51.194;6.840;2022-08-01T14:36:21;6.55;;;2.50;;
18082;SDS011;9168;51.194;6.840;2022-08-01T14:38:48;9.90;;;2.33;;
18082;SDS011;9168;51.194;6.840;2022-08-01T14:41:15;5.90;;;2.30;;
18082;SDS011;9168;51.194;6.840;2022-08-01T14:43:41;5.95;;;2.30;;
18082;SDS011;9168;51.194;6.840;2022-08-01T14:46:10;2.55;;;1.95;;
18082;SDS011;9168;51.194;6.840;2022-08-01T14:48:38;2.85;;;1.98;;
18082;SDS011;9168;51.194;6.840;2022-08-01T14:51:05;2.38;;;2.05;;
18082;SDS011;9168;51.194;6.840;2022-08-01T14:53:32;2.78;;;2.08;;
18082;SDS011;9168;51.194;6.840;2022-08-01T14:56:00;3.65;;;1.95;;
18082;SDS011;9168;51.194;6.840;2022-08-01T14:58:28;8.38;;;2.30;;
18082;SDS011;9168;51.194;6.840;2022-08-01T15:00:55;4.13;;;2.47;;
18082;SDS011;9168;51.194;6.840;2022-08-01T15:03:23;3.60;;;2.10;;
18082;SDS011;9168;51.194;6.840;2022-08-01T15:05:50;5.13;;;2.20;;
18082;SDS011;9168;51.194;6.840;2022-08-01T15:08:17;4.93;;;2.58;;
18082;SDS011;9168;51.194;6.840;2022-08-01T15:10:44;6.72;;;2.35;;
18082;SDS011;9168;51.194;6.840;2022-08-01T15:13:11;4.35;;;2.00;;